Borger, Netherlands
Current Conditions -  °F | °C
As of 4:25 PM on Thursday 18 Dec 2014 (Local Time) from EHGG Reporting Station
Drizzle Drizzle  
Wind Chill: 52°   Ceiling: 700
Heat Index: 52°   Visibility: 2mi
Dew Point: 52°   Wind: 23mph
Humidity: 100%   Direction: 240°WSW
Pressure: 29.62"   Gusts: NA
Location:  52.92°N, 6.79°E
Report Text: EHGG 181525Z AUTO 24020KT 210V270 3300 DZ SCT006 BKN007 OVC00911/11 Q1003 RERA REDZ TEMPO 5000
Loading
Personal Weather Stations






























Interactive Weather Map New forecast layout! Learn more

10-Day Weather Forecast

Advertisements
Track Severe Weather on mobile